Black Meadow Landing, California
Current Conditions -  °F | °C
As of 10:15 AM on Thursday 29 Jan 2015 (Local Time) from KHII Reporting Station
Clear Clear  
Wind Chill: 64°   Ceiling: Unl
Heat Index: 64°   Visibility: 10mi
Dew Point: 46°   Wind: 7mph
Humidity: 52%   Direction: 320°NW
Pressure: 30.11"   Gusts: NA
Location:  34.2861°N, 114.142°W
Report Text: KHII 291815Z AUTO 32006KT 10SM CLR 18/08 A3011 RMK AO2
Loading
Personal Weather Stations






























Interactive Weather Map New forecast layout! Learn more

10-Day Weather Forecast

Advertisements
Track Severe Weather on mobile